Time;durP1;ratioP1;P1;durP2;ratioP2;P2;SDS_P1;SDS_P2;PMS_P1;PMS_P2;Temp;Humidity;BMP_temperature;BMP_pressure;BME280_temperature;BME280_humidity;BME280_pressure;Samples;Min_cycle;Max_cycle;Signal;HPM_P1;HPM_P2
2022/02/23 00:00:16;;;;;;;6.93;1.83;;;6.20;99.90;;;;;;5046529;28;20037;-38
2022/02/23 00:02:42;;;;;;;2.53;1.38;;;6.20;99.90;;;;;;5042335;28;20041;-39
2022/02/23 00:05:08;;;;;;;3.35;1.48;;;6.20;99.90;;;;;;5047159;28;20466;-38
2022/02/23 00:07:34;;;;;;;1.75;1.50;;;6.20;99.90;;;;;;5043713;28;20115;-39
2022/02/23 00:10:00;;;;;;;5.68;1.55;;;6.30;99.90;;;;;;5045906;28;20477;-38
2022/02/23 00:12:25;;;;;;;1.55;1.40;;;6.30;99.90;;;;;;5045651;28;20086;-39
2022/02/23 00:14:51;;;;;;;4.93;1.73;;;6.30;99.90;;;;;;5045184;28;20040;-39
2022/02/23 00:17:17;;;;;;;6.03;3.35;;;6.30;99.90;;;;;;5046587;28;20036;-36
2022/02/23 00:19:43;;;;;;;7.78;2.13;;;6.30;99.90;;;;;;5044877;28;20025;-39
2022/02/23 00:22:09;;;;;;;7.72;1.85;;;6.30;99.90;;;;;;5046592;28;20028;-38
2022/02/23 00:24:34;;;;;;;5.50;1.98;;;6.30;99.90;;;;;;5048199;28;20029;-39
2022/02/23 00:27:00;;;;;;;1.38;0.80;;;6.30;99.90;;;;;;5049827;28;20076;-39
2022/02/23 00:29:25;;;;;;;3.88;1.40;;;6.30;99.90;;;;;;5045315;28;20037;-36
2022/02/23 00:31:51;;;;;;;3.45;1.60;;;6.30;99.90;;;;;;5045860;28;20112;-39
2022/02/23 00:34:17;;;;;;;2.35;1.02;;;6.30;99.90;;;;;;5051096;28;20035;-39
2022/02/23 00:36:43;;;;;;;2.85;1.33;;;6.30;99.90;;;;;;5047513;28;20075;-39
2022/02/23 00:39:09;;;;;;;2.58;1.05;;;6.40;99.90;;;;;;5048662;28;20097;-37
2022/02/23 00:41:35;;;;;;;5.45;1.23;;;6.40;99.90;;;;;;5047396;28;20449;-36
2022/02/23 00:44:00;;;;;;;7.43;2.33;;;6.40;99.90;;;;;;5045254;28;20032;-39
2022/02/23 00:46:26;;;;;;;2.63;1.23;;;6.40;99.90;;;;;;5046527;28;20032;-36
2022/02/23 00:48:53;;;;;;;2.63;1.30;;;6.40;99.90;;;;;;5043654;28;20025;-37
2022/02/23 00:51:22;;;;;;;4.63;2.05;;;6.40;99.90;;;;;;5043404;28;20044;-38
2022/02/23 00:53:48;;;;;;;3.38;1.35;;;6.40;99.90;;;;;;5045260;28;20036;-36
2022/02/23 00:56:13;;;;;;;3.75;1.27;;;6.40;99.90;;;;;;5046050;28;20766;-39
2022/02/23 00:58:39;;;;;;;3.80;1.63;;;6.40;99.90;;;;;;5045306;28;20043;-37
2022/02/23 01:01:04;;;;;;;3.78;1.15;;;6.40;99.90;;;;;;5044949;28;20048;-38
2022/02/23 01:03:30;;;;;;;2.42;1.58;;;6.40;99.90;;;;;;5045856;28;20477;-39
2022/02/23 01:05:56;;;;;;;2.10;1.15;;;6.40;99.90;;;;;;5075021;28;20025;-39
2022/02/23 01:08:22;;;;;;;1.30;1.20;;;6.50;99.90;;;;;;5047269;28;20155;-39
2022/02/23 01:10:48;;;;;;;1.75;1.50;;;6.40;99.90;;;;;;5048358;28;20433;-38
2022/02/23 01:13:13;;;;;;;1.65;1.13;;;6.40;99.90;;;;;;5049632;28;20451;-39
2022/02/23 01:15:39;;;;;;;3.13;1.50;;;6.30;99.90;;;;;;5046190;28;20031;-38
2022/02/23 01:18:05;;;;;;;1.73;1.42;;;6.30;99.90;;;;;;5047679;28;20485;-38
2022/02/23 01:20:31;;;;;;;2.60;1.30;;;6.30;99.90;;;;;;5048977;28;20072;-39
2022/02/23 01:22:58;;;;;;;4.47;1.75;;;6.20;99.90;;;;;;5045281;28;20058;-39
2022/02/23 01:25:24;;;;;;;5.88;1.80;;;6.20;99.90;;;;;;5046460;28;20116;-39
2022/02/23 01:27:50;;;;;;;5.00;1.30;;;6.20;99.90;;;;;;5045398;28;20502;-38
2022/02/23 01:30:17;;;;;;;1.15;0.90;;;6.20;99.90;;;;;;5044621;28;20033;-38
2022/02/23 01:32:43;;;;;;;2.65;1.33;;;6.20;99.90;;;;;;5044335;28;20044;-38
2022/02/23 01:35:08;;;;;;;3.65;1.30;;;6.20;99.90;;;;;;5047527;28;20032;-38
2022/02/23 01:37:34;;;;;;;3.40;1.65;;;6.30;99.90;;;;;;5048169;28;20035;-39
2022/02/23 01:40:00;;;;;;;5.22;1.42;;;6.30;99.90;;;;;;5050592;28;20102;-39
2022/02/23 01:42:26;;;;;;;5.35;1.73;;;6.30;99.90;;;;;;5050685;28;20037;-37
2022/02/23 01:44:51;;;;;;;4.10;1.08;;;6.30;99.90;;;;;;5051710;28;20032;-37
2022/02/23 01:47:17;;;;;;;5.20;1.17;;;6.20;99.90;;;;;;5050777;28;20052;-37
2022/02/23 01:49:43;;;;;;;1.98;1.15;;;6.20;99.90;;;;;;5050073;28;20078;-37
2022/02/23 01:52:08;;;;;;;4.40;1.65;;;6.20;99.90;;;;;;5048992;28;20029;-38
2022/02/23 01:54:34;;;;;;;2.80;1.30;;;6.20;99.90;;;;;;5049822;28;20049;-39
2022/02/23 01:57:00;;;;;;;2.97;1.58;;;6.20;99.90;;;;;;5051330;28;20064;-39
2022/02/23 01:59:25;;;;;;;4.68;1.40;;;6.30;99.90;;;;;;5044102;28;20029;-39
2022/02/23 02:01:52;;;;;;;3.78;1.20;;;6.20;99.90;;;;;;5042450;28;20065;-36
2022/02/23 02:04:21;;;;;;;3.30;1.17;;;6.30;99.90;;;;;;5040109;28;20033;-39
2022/02/23 02:06:49;;;;;;;2.50;1.75;;;6.30;99.90;;;;;;5048151;28;20104;-39
2022/02/23 02:09:15;;;;;;;1.67;1.52;;;6.30;99.90;;;;;;5045703;28;20473;-38
2022/02/23 02:11:40;;;;;;;1.48;1.30;;;6.40;99.90;;;;;;5049452;28;20036;-38
2022/02/23 02:14:06;;;;;;;1.52;1.20;;;6.40;99.90;;;;;;5047322;28;20435;-39
2022/02/23 02:16:32;;;;;;;4.20;1.27;;;6.40;99.90;;;;;;5047768;28;20546;-36
2022/02/23 02:18:58;;;;;;;5.03;1.48;;;6.40;99.90;;;;;;5050883;28;20029;-39
2022/02/23 02:21:30;;;;;;;5.30;1.55;;;6.40;99.90;;;;;;5049156;28;20370;-39
2022/02/23 02:23:55;;;;;;;6.15;1.17;;;6.40;99.90;;;;;;5049512;28;20037;-37
2022/02/23 02:26:21;;;;;;;2.03;1.10;;;6.40;99.90;;;;;;5049993;28;20481;-38
2022/02/23 02:28:46;;;;;;;2.25;1.23;;;6.40;99.90;;;;;;5044058;28;20098;-36
2022/02/23 02:31:12;;;;;;;4.80;0.98;;;6.40;99.90;;;;;;5045295;28;20029;-39
2022/02/23 02:33:37;;;;;;;1.35;1.08;;;6.40;99.90;;;;;;5052564;28;20543;-39
2022/02/23 02:36:03;;;;;;;2.50;1.15;;;6.40;99.90;;;;;;5050356;28;20064;-38
2022/02/23 02:38:29;;;;;;;2.72;1.05;;;6.40;99.90;;;;;;5046485;28;20053;-38
2022/02/23 02:40:54;;;;;;;4.20;1.98;;;6.40;99.90;;;;;;5048184;28;20099;-37
2022/02/23 02:43:20;;;;;;;1.95;1.13;;;6.40;99.90;;;;;;5051117;28;20241;-39
2022/02/23 02:45:46;;;;;;;1.10;1.10;;;6.40;99.90;;;;;;5045258;28;20108;-39
2022/02/23 02:48:12;;;;;;;3.42;1.33;;;6.50;99.90;;;;;;5049834;28;20147;-39
2022/02/23 02:50:37;;;;;;;3.05;1.48;;;6.50;99.90;;;;;;5046384;28;20044;-39
2022/02/23 02:53:03;;;;;;;1.98;1.10;;;6.40;99.90;;;;;;5050287;28;20041;-36
2022/02/23 02:55:28;;;;;;;1.02;1.00;;;6.50;99.90;;;;;;5047683;28;20123;-39
2022/02/23 02:57:54;;;;;;;3.40;1.23;;;6.40;99.90;;;;;;5048210;28;20037;-38
2022/02/23 03:00:20;;;;;;;3.58;1.15;;;6.40;99.90;;;;;;5046394;28;20119;-39
2022/02/23 03:02:45;;;;;;;1.75;1.20;;;6.40;99.90;;;;;;5046324;28;20087;-39
2022/02/23 03:05:11;;;;;;;2.22;1.33;;;6.40;99.90;;;;;;5049042;28;20021;-36
2022/02/23 03:07:37;;;;;;;0.65;0.65;;;6.40;99.90;;;;;;5044036;28;20040;-39
2022/02/23 03:10:04;;;;;;;0.70;0.70;;;6.40;99.90;;;;;;5048903;28;20131;-39
2022/02/23 03:12:29;;;;;;;2.92;0.90;;;6.40;99.90;;;;;;5048014;28;20033;-39
2022/02/23 03:14:55;;;;;;;2.55;0.80;;;6.00;99.90;;;;;;5076336;28;20082;-39
2022/02/23 03:17:21;;;;;;;1.13;0.65;;;5.20;99.90;;;;;;5046645;28;20717;-39
2022/02/23 03:19:46;;;;;;;3.60;1.05;;;4.80;99.90;;;;;;5047636;28;20057;-38
2022/02/23 03:22:12;;;;;;;0.80;0.80;;;4.60;99.90;;;;;;5047078;28;20028;-36
2022/02/23 03:24:38;;;;;;;2.70;0.80;;;4.50;99.90;;;;;;5048419;28;20477;-35
2022/02/23 03:27:03;;;;;;;0.80;0.77;;;4.40;99.90;;;;;;5050426;28;20045;-39
2022/02/23 03:29:29;;;;;;;2.53;0.80;;;4.40;99.90;;;;;;5046649;28;20029;-36
2022/02/23 03:31:55;;;;;;;1.85;0.68;;;4.20;99.90;;;;;;5048000;28;20503;-39
2022/02/23 03:34:21;;;;;;;1.70;0.80;;;4.20;99.90;;;;;;5045927;28;20040;-39
2022/02/23 03:36:46;;;;;;;0.70;0.70;;;4.20;99.90;;;;;;5044052;28;20062;-39
2022/02/23 03:39:12;;;;;;;2.42;0.73;;;4.20;99.90;;;;;;5045395;28;20029;-39
2022/02/23 03:41:38;;;;;;;0.60;0.60;;;4.20;99.90;;;;;;5046398;28;20423;-39
2022/02/23 03:44:03;;;;;;;0.73;0.73;;;4.20;99.90;;;;;;5045295;28;20567;-39
2022/02/23 03:46:29;;;;;;;1.85;0.82;;;4.20;99.90;;;;;;5048823;28;20504;-33
2022/02/23 03:48:55;;;;;;;0.85;0.70;;;4.20;99.90;;;;;;5049692;28;20046;-32
2022/02/23 03:51:20;;;;;;;1.55;1.05;;;4.00;99.90;;;;;;5048792;28;20083;-32
2022/02/23 03:53:46;;;;;;;0.77;0.70;;;3.90;99.90;;;;;;5050123;28;20040;-33
2022/02/23 03:59:08;;;;;;;0.63;0.63;;;3.90;99.90;;;;;;5033261;28;20045;-33
2022/02/23 04:01:36;;;;;;;0.85;0.85;;;3.80;99.90;;;;;;5043496;28;20052;-32
2022/02/23 04:04:02;;;;;;;0.67;0.67;;;3.80;99.90;;;;;;5047114;28;20021;-32
2022/02/23 04:06:28;;;;;;;1.55;0.88;;;3.80;99.90;;;;;;5044014;28;20028;-33
2022/02/23 04:08:57;;;;;;;0.85;0.85;;;3.80;99.90;;;;;;5047043;28;20044;-32
2022/02/23 04:11:23;;;;;;;1.33;0.68;;;3.90;99.90;;;;;;5047573;28;20082;-32
2022/02/23 04:13:49;;;;;;;2.85;0.70;;;3.90;99.90;;;;;;5044043;28;20040;-32
2022/02/23 04:16:15;;;;;;;1.90;1.10;;;4.00;99.90;;;;;;5046886;28;20048;-33
2022/02/23 04:18:41;;;;;;;6.28;1.17;;;4.00;99.90;;;;;;5047397;28;20025;-32
2022/02/23 04:21:07;;;;;;;1.17;0.68;;;4.00;99.90;;;;;;5047626;28;20074;-32
2022/02/23 04:23:33;;;;;;;1.90;0.80;;;4.10;99.90;;;;;;5046256;28;20483;-32
2022/02/23 04:25:59;;;;;;;1.38;0.93;;;4.10;99.90;;;;;;5042723;28;20025;-32
2022/02/23 04:28:28;;;;;;;1.67;0.70;;;4.10;99.90;;;;;;5045356;28;20549;-33
2022/02/23 04:30:55;;;;;;;2.83;1.00;;;4.00;99.90;;;;;;5046389;28;20564;-32
2022/02/23 04:33:21;;;;;;;1.45;0.70;;;4.00;99.90;;;;;;5046128;28;20035;-33
2022/02/23 04:35:47;;;;;;;4.88;0.95;;;4.00;99.90;;;;;;5047577;28;20078;-32
2022/02/23 04:38:14;;;;;;;3.88;1.35;;;4.00;99.90;;;;;;5047792;28;20040;-33
2022/02/23 04:40:43;;;;;;;6.03;1.17;;;3.90;99.90;;;;;;5045374;28;20040;-33
2022/02/23 04:43:09;;;;;;;1.10;1.00;;;3.90;99.90;;;;;;5045704;28;20079;-33
2022/02/23 04:45:35;;;;;;;1.02;1.00;;;4.00;99.90;;;;;;5046683;28;20021;-32
2022/02/23 04:48:00;;;;;;;2.15;1.15;;;4.00;99.90;;;;;;5045552;28;20028;-32
2022/02/23 04:50:26;;;;;;;1.20;1.10;;;4.00;99.90;;;;;;5048778;28;20370;-32
2022/02/23 04:52:52;;;;;;;3.83;1.05;;;4.00;99.90;;;;;;5043013;28;20401;-34
2022/02/23 04:55:17;;;;;;;3.42;1.10;;;4.00;99.90;;;;;;5046064;28;21069;-33
2022/02/23 04:57:45;;;;;;;1.20;0.98;;;3.90;99.90;;;;;;5046722;28;20060;-33
2022/02/23 05:00:12;;;;;;;1.20;0.90;;;3.90;99.90;;;;;;5044607;28;20029;-33
2022/02/23 05:02:38;;;;;;;0.75;0.60;;;3.90;99.90;;;;;;5050750;28;20123;-32
2022/02/23 05:05:04;;;;;;;1.02;0.95;;;3.90;99.90;;;;;;5050344;28;20560;-33
2022/02/23 05:07:30;;;;;;;1.60;1.45;;;3.90;99.90;;;;;;5049609;28;20036;-32
2022/02/23 05:09:56;;;;;;;0.85;0.82;;;3.80;99.90;;;;;;5046087;28;20029;-32
2022/02/23 05:12:22;;;;;;;4.57;1.35;;;3.80;99.90;;;;;;5049401;28;20114;-32
2022/02/23 05:14:47;;;;;;;1.80;1.00;;;3.70;99.90;;;;;;5047440;28;20020;-32
2022/02/23 05:17:14;;;;;;;2.20;1.00;;;3.80;99.90;;;;;;5052532;28;20029;-32
2022/02/23 05:19:41;;;;;;;0.80;0.80;;;3.70;99.90;;;;;;5049839;28;20033;-32
2022/02/23 05:22:07;;;;;;;0.95;0.95;;;3.80;99.90;;;;;;5079517;28;20115;-32
2022/02/23 05:24:33;;;;;;;4.03;1.27;;;3.80;99.90;;;;;;5055690;28;20488;-33
2022/02/23 05:27:00;;;;;;;3.78;1.02;;;3.70;99.90;;;;;;5052119;28;20052;-33
2022/02/23 05:29:25;;;;;;;0.77;0.77;;;3.70;99.90;;;;;;5057281;28;20103;-32
2022/02/23 05:31:52;;;;;;;1.25;0.82;;;3.70;99.90;;;;;;5045905;28;20136;-32
2022/02/23 05:34:18;;;;;;;1.85;1.00;;;3.70;99.90;;;;;;5047789;28;20393;-32
2022/02/23 05:36:44;;;;;;;2.00;1.13;;;3.70;99.90;;;;;;5051287;28;20025;-32
2022/02/23 05:39:10;;;;;;;1.45;0.80;;;3.80;99.90;;;;;;5050230;28;20033;-32
2022/02/23 05:41:36;;;;;;;3.08;1.08;;;3.70;99.90;;;;;;5053381;28;20033;-33
2022/02/23 05:44:02;;;;;;;1.88;1.02;;;3.80;99.90;;;;;;5051619;28;20083;-32
2022/02/23 05:46:28;;;;;;;5.38;1.88;;;3.70;99.90;;;;;;5047393;28;20017;-32
2022/02/23 05:48:53;;;;;;;8.38;1.80;;;3.70;99.90;;;;;;5047473;28;20032;-33
2022/02/23 05:51:29;;;;;;;2.78;1.40;;;3.70;99.90;;;;;;5055374;28;20486;-33
2022/02/23 05:53:58;;;;;;;1.38;1.15;;;3.60;99.90;;;;;;5046498;28;20033;-32
2022/02/23 05:56:23;;;;;;;1.17;1.08;;;3.60;99.90;;;;;;5049282;28;20035;-32
2022/02/23 05:58:49;;;;;;;3.17;1.40;;;3.50;99.90;;;;;;5048360;28;20037;-33
2022/02/23 06:01:15;;;;;;;1.40;1.30;;;3.50;99.90;;;;;;5051700;28;20029;-32
2022/02/23 06:04:01;;;;;;;2.35;1.05;;;3.50;99.90;;;;;;5056246;28;20108;-33
2022/02/23 06:06:26;;;;;;;4.43;2.13;;;3.40;99.90;;;;;;5047638;28;20029;-33
2022/02/23 06:08:52;;;;;;;1.30;1.30;;;3.40;99.90;;;;;;5053054;28;20512;-32
2022/02/23 06:11:18;;;;;;;4.05;1.27;;;3.40;99.90;;;;;;5047960;28;20036;-33
2022/02/23 06:13:50;;;;;;;4.90;1.60;;;3.40;99.90;;;;;;5050662;28;20385;-32
2022/02/23 06:16:23;;;;;;;2.92;1.50;;;3.40;99.90;;;;;;5045603;28;20482;-32
2022/02/23 06:18:50;;;;;;;5.10;1.98;;;3.40;99.90;;;;;;5049328;28;20486;-33
2022/02/23 06:21:16;;;;;;;1.30;1.20;;;3.30;99.90;;;;;;5045716;28;20032;-33
2022/02/23 06:23:45;;;;;;;2.92;1.98;;;3.30;99.90;;;;;;5047799;28;20641;-32
2022/02/23 06:26:10;;;;;;;3.75;1.67;;;3.30;99.90;;;;;;5054259;28;20742;-33
2022/02/23 06:28:36;;;;;;;2.45;2.17;;;3.30;99.90;;;;;;5053623;28;20041;-32
2022/02/23 06:31:02;;;;;;;5.28;2.20;;;3.30;99.90;;;;;;5051298;28;20456;-33
2022/02/23 06:33:28;;;;;;;6.75;3.22;;;3.20;99.90;;;;;;5045264;28;20029;-33
2022/02/23 06:35:54;;;;;;;1.52;1.30;;;3.20;99.90;;;;;;5048399;28;21991;-33
2022/02/23 06:38:21;;;;;;;3.05;2.38;;;3.20;99.90;;;;;;5050672;28;20028;-32
2022/02/23 06:40:48;;;;;;;2.53;1.70;;;3.30;99.90;;;;;;5047462;28;20037;-32
2022/02/23 06:43:15;;;;;;;6.13;1.67;;;3.20;99.90;;;;;;5049750;28;20135;-32
2022/02/23 06:45:45;;;;;;;2.78;1.60;;;3.30;99.90;;;;;;5053868;28;20135;-33
2022/02/23 06:48:11;;;;;;;1.48;1.30;;;3.30;99.90;;;;;;5046679;28;20071;-33
2022/02/23 06:50:37;;;;;;;1.95;1.60;;;3.40;99.90;;;;;;5049560;28;20052;-32
2022/02/23 06:53:03;;;;;;;2.05;1.77;;;3.30;99.90;;;;;;5049001;28;20033;-33
2022/02/23 06:55:28;;;;;;;4.35;2.05;;;3.40;99.90;;;;;;5051902;28;20032;-33
2022/02/23 06:57:54;;;;;;;4.97;2.55;;;3.40;99.90;;;;;;5045677;28;20053;-32
2022/02/23 07:00:20;;;;;;;7.93;3.80;;;3.40;99.90;;;;;;5046258;28;20116;-33
2022/02/23 07:02:45;;;;;;;5.10;1.83;;;3.40;99.90;;;;;;5044094;28;20132;-33
2022/02/23 07:05:11;;;;;;;2.42;2.13;;;3.50;99.90;;;;;;5049344;28;20034;-33
2022/02/23 07:07:37;;;;;;;2.00;1.48;;;3.40;99.90;;;;;;5045491;28;20021;-33
2022/02/23 07:10:18;;;;;;;3.60;2.38;;;3.50;99.90;;;;;;5047038;28;20055;-32
2022/02/23 07:12:44;;;;;;;2.55;1.92;;;3.50;99.90;;;;;;5046825;28;20052;-33
2022/02/23 07:15:09;;;;;;;6.53;1.85;;;3.50;99.90;;;;;;5045903;28;20461;-32
2022/02/23 07:17:35;;;;;;;4.28;2.45;;;3.50;99.90;;;;;;5052917;28;20048;-32
2022/02/23 07:20:01;;;;;;;3.33;1.13;;;3.50;99.90;;;;;;5043940;28;20555;-33
2022/02/23 07:22:26;;;;;;;3.30;1.70;;;3.50;99.90;;;;;;5039615;28;20570;-32
2022/02/23 07:24:52;;;;;;;4.88;1.65;;;3.60;99.90;;;;;;5040641;28;20037;-32
2022/02/23 07:27:17;;;;;;;4.75;1.80;;;3.60;99.90;;;;;;5037102;28;20045;-32
2022/02/23 07:29:46;;;;;;;1.10;1.10;;;3.60;99.90;;;;;;5042421;28;20029;-33
2022/02/23 07:32:12;;;;;;;2.22;2.00;;;3.60;99.90;;;;;;5041088;28;20040;-32
2022/02/23 07:34:39;;;;;;;2.05;1.55;;;3.60;99.90;;;;;;5045700;28;20025;-32
2022/02/23 07:37:06;;;;;;;2.47;1.70;;;3.60;99.90;;;;;;5048298;28;20037;-32
2022/02/23 07:39:32;;;;;;;4.32;1.85;;;3.60;99.90;;;;;;5045233;28;21632;-33
2022/02/23 07:41:58;;;;;;;1.80;1.50;;;3.60;99.90;;;;;;5044557;28;20060;-33
2022/02/23 07:44:24;;;;;;;3.05;1.58;;;3.70;99.90;;;;;;5043194;28;20117;-32
2022/02/23 07:46:50;;;;;;;3.08;1.50;;;3.70;99.90;;;;;;5046360;28;20048;-32
2022/02/23 07:49:16;;;;;;;4.45;2.22;;;3.80;99.90;;;;;;5045796;28;20021;-33
2022/02/23 07:51:42;;;;;;;1.80;1.52;;;3.80;99.90;;;;;;5043447;28;20036;-33
2022/02/23 07:54:08;;;;;;;1.42;1.33;;;3.80;99.90;;;;;;5048574;28;20393;-32
2022/02/23 07:56:34;;;;;;;1.40;1.30;;;3.90;99.90;;;;;;5048529;28;20021;-32
2022/02/23 07:58:59;;;;;;;2.13;1.45;;;3.90;99.90;;;;;;5048930;28;20078;-33
2022/02/23 08:01:33;;;;;;;2.03;1.48;;;4.00;99.90;;;;;;5048848;28;20032;-32
2022/02/23 08:03:58;;;;;;;3.78;1.70;;;4.10;99.90;;;;;;5049748;28;20493;-32
2022/02/23 08:06:25;;;;;;;3.05;1.95;;;4.10;99.90;;;;;;5040844;28;20029;-32
2022/02/23 08:08:53;;;;;;;1.88;1.50;;;4.20;99.90;;;;;;5047429;28;20541;-33
2022/02/23 08:11:19;;;;;;;2.97;1.50;;;4.20;99.90;;;;;;5047085;28;20029;-33
2022/02/23 08:13:45;;;;;;;1.60;1.50;;;4.30;99.90;;;;;;5047573;28;20037;-32
2022/02/23 08:21:53;;;;;;;1.98;1.58;;;4.50;99.90;;;;;;5041349;28;20047;-33
2022/02/23 08:24:18;;;;;;;3.75;1.27;;;4.60;99.90;;;;;;5046274;28;20047;-32
2022/02/23 08:26:44;;;;;;;3.70;1.75;;;4.70;99.90;;;;;;5045969;28;20044;-33
2022/02/23 08:29:10;;;;;;;3.75;1.77;;;4.80;99.90;;;;;;5053505;28;20020;-34
2022/02/23 08:31:37;;;;;;;1.33;1.23;;;4.90;99.90;;;;;;5043983;28;20036;-32
2022/02/23 08:34:03;;;;;;;4.13;2.65;;;5.10;99.90;;;;;;5047410;28;20027;-33
2022/02/23 08:36:28;;;;;;;3.80;1.27;;;5.10;99.90;;;;;;5044312;28;20028;-32
2022/02/23 08:38:54;;;;;;;3.10;1.75;;;5.20;99.90;;;;;;5044959;28;20449;-33
2022/02/23 08:41:20;;;;;;;1.60;1.50;;;5.30;99.90;;;;;;5043722;28;20033;-33
2022/02/23 08:43:45;;;;;;;1.25;1.15;;;5.40;99.90;;;;;;5045640;28;20021;-34
2022/02/23 08:46:11;;;;;;;4.95;1.92;;;5.50;99.90;;;;;;5042198;28;20047;-33
2022/02/23 08:48:37;;;;;;;3.80;1.83;;;5.60;99.90;;;;;;5044186;28;20025;-32
2022/02/23 08:51:03;;;;;;;3.72;1.52;;;5.70;99.90;;;;;;5044519;28;20036;-32
2022/02/23 08:53:29;;;;;;;2.08;1.88;;;5.80;99.90;;;;;;5050235;28;20473;-33
2022/02/23 08:55:55;;;;;;;0.93;0.77;;;5.90;99.90;;;;;;5050889;28;20108;-34
2022/02/23 08:58:21;;;;;;;1.25;1.10;;;6.00;99.90;;;;;;5047001;28;20087;-32
2022/02/23 09:00:48;;;;;;;3.67;1.88;;;5.90;99.90;;;;;;5047572;28;20056;-32
2022/02/23 09:03:14;;;;;;;6.13;1.60;;;5.90;99.90;;;;;;5048593;28;20111;-32
2022/02/23 09:05:40;;;;;;;4.28;1.83;;;5.90;99.90;;;;;;5046951;28;20843;-32
2022/02/23 09:08:06;;;;;;;4.82;1.65;;;6.10;99.90;;;;;;5048799;28;20111;-33
2022/02/23 09:10:32;;;;;;;6.00;2.80;;;6.00;99.90;;;;;;5045991;28;20099;-32
2022/02/23 09:12:57;;;;;;;3.97;1.60;;;6.00;99.90;;;;;;5051559;28;20127;-34
2022/02/23 09:15:23;;;;;;;5.05;1.98;;;6.00;99.90;;;;;;5050041;28;20048;-33
2022/02/23 09:17:49;;;;;;;5.07;2.33;;;6.00;99.90;;;;;;5047540;28;20074;-33
2022/02/23 09:20:14;;;;;;;2.15;1.38;;;6.20;99.90;;;;;;5050651;28;20098;-33
2022/02/23 09:22:40;;;;;;;5.10;1.42;;;6.50;99.90;;;;;;5046214;28;20031;-33
2022/02/23 09:25:07;;;;;;;5.20;2.00;;;6.70;99.90;;;;;;5042613;28;20028;-33
2022/02/23 09:27:34;;;;;;;4.68;2.00;;;6.70;99.90;;;;;;5053496;28;20045;-32
2022/02/23 09:30:00;;;;;;;3.83;1.50;;;6.70;99.90;;;;;;5054189;28;20037;-32
2022/02/23 09:32:26;;;;;;;10.77;2.55;;;6.60;99.90;;;;;;5052268;28;20128;-32
2022/02/23 09:34:52;;;;;;;4.97;1.67;;;6.80;99.90;;;;;;5059287;28;20025;-33
2022/02/23 09:37:18;;;;;;;5.28;2.45;;;7.00;99.90;;;;;;5047539;28;20036;-33
2022/02/23 09:39:44;;;;;;;4.45;1.80;;;7.00;99.90;;;;;;5046298;28;20037;-33
2022/02/23 09:42:13;;;;;;;3.80;1.52;;;6.90;99.90;;;;;;5045942;28;20393;-33
2022/02/23 09:44:42;;;;;;;9.27;1.73;;;6.70;99.90;;;;;;5051455;28;20025;-33
2022/02/23 09:47:09;;;;;;;3.65;1.85;;;6.60;99.90;;;;;;5043594;28;20025;-32
2022/02/23 09:49:35;;;;;;;3.55;1.98;;;6.60;99.90;;;;;;5044861;28;20160;-34
2022/02/23 09:52:02;;;;;;;5.03;2.33;;;6.60;99.90;;;;;;5050776;28;20111;-32
2022/02/23 09:54:28;;;;;;;5.55;1.90;;;6.60;99.90;;;;;;5044812;28;20036;-33
2022/02/23 09:56:54;;;;;;;8.05;1.77;;;6.50;99.90;;;;;;5042452;28;20029;-32
2022/02/23 09:59:21;;;;;;;3.72;1.80;;;6.50;99.90;;;;;;5048018;28;20040;-33
2022/02/23 10:01:48;;;;;;;7.47;1.80;;;6.40;99.90;;;;;;5049094;28;20809;-34
2022/02/23 10:04:17;;;;;;;4.30;1.65;;;6.40;99.90;;;;;;5050861;28;20033;-33
2022/02/23 10:06:43;;;;;;;6.05;2.05;;;6.40;99.90;;;;;;5046729;28;20033;-33
2022/02/23 10:09:11;;;;;;;9.55;2.30;;;6.50;99.90;;;;;;5049374;28;20071;-32
2022/02/23 10:11:39;;;;;;;5.80;1.98;;;6.70;99.90;;;;;;5050380;28;20056;-33
2022/02/23 10:14:06;;;;;;;4.30;1.57;;;6.90;99.90;;;;;;5049897;28;20158;-33
2022/02/23 10:16:33;;;;;;;5.80;2.17;;;7.20;99.90;;;;;;5048379;28;20035;-33
2022/02/23 10:19:21;;;;;;;9.80;1.60;;;7.30;99.90;;;;;;5052118;28;20021;-33
2022/02/23 10:21:55;;;;;;;6.07;2.05;;;7.50;99.90;;;;;;5050436;28;20029;-32
2022/02/23 10:24:29;;;;;;;5.03;1.60;;;7.70;99.90;;;;;;5050529;28;20025;-32
2022/02/23 10:26:57;;;;;;;5.00;1.45;;;7.80;99.90;;;;;;5044590;28;20523;-33
2022/02/23 10:29:44;;;;;;;8.40;1.33;;;8.00;99.90;;;;;;5046260;28;20025;-33
2022/02/23 10:32:12;;;;;;;4.13;1.10;;;8.20;99.90;;;;;;5046809;28;20025;-33
2022/02/23 10:34:48;;;;;;;5.68;1.83;;;8.30;99.90;;;;;;5050029;28;20044;-33
2022/02/23 10:37:17;;;;;;;3.53;1.17;;;8.40;99.90;;;;;;5049723;28;20029;-32
2022/02/23 10:39:47;;;;;;;;;;;8.40;99.90;;;;;;5051539;28;20044;-33
2022/02/23 10:42:19;;;;;;;5.10;1.52;;;8.30;99.90;;;;;;5048856;28;19916;-32
2022/02/23 10:44:47;;;;;;;7.53;1.73;;;8.50;99.90;;;;;;5050660;28;20389;-32
2022/02/23 10:47:37;;;;;;;9.02;1.58;;;8.70;99.90;;;;;;5051320;28;20025;-32
2022/02/23 10:50:02;;;;;;;3.42;1.65;;;8.60;99.90;;;;;;5050054;28;20033;-33
2022/02/23 10:52:30;;;;;;;5.78;1.50;;;8.50;99.90;;;;;;5050395;28;20032;-33
2022/02/23 10:55:15;;;;;;;3.73;1.53;;;8.40;99.90;;;;;;5053643;28;20037;-32
2022/02/23 10:57:46;;;;;;;1.67;1.30;;;8.20;99.90;;;;;;5051656;28;20064;-33
2022/02/23 11:00:14;;;;;;;1.85;1.35;;;8.30;99.90;;;;;;5044575;28;20143;-33
2022/02/23 11:02:39;;;;;;;8.98;1.67;;;8.40;99.90;;;;;;5052781;28;20029;-33
2022/02/23 11:05:06;;;;;;;4.22;1.42;;;8.50;99.90;;;;;;5051676;28;20023;-32
2022/02/23 11:07:31;;;;;;;4.60;1.70;;;8.40;99.90;;;;;;5048150;28;20139;-34
2022/02/23 11:09:57;;;;;;;5.05;1.48;;;8.40;99.90;;;;;;5048718;28;20525;-32
2022/02/23 11:12:23;;;;;;;1.58;1.13;;;8.40;99.90;;;;;;5048890;28;20449;-33
2022/02/23 11:14:48;;;;;;;6.97;1.73;;;8.30;99.90;;;;;;5045870;28;20108;-33
2022/02/23 11:17:15;;;;;;;6.95;1.52;;;8.30;99.90;;;;;;5044738;28;20037;-32
2022/02/23 11:19:43;;;;;;;4.82;1.60;;;8.20;99.90;;;;;;5053326;28;20025;-33
2022/02/23 11:22:09;;;;;;;4.13;1.40;;;8.20;99.90;;;;;;5048421;28;20035;-33
2022/02/23 11:24:35;;;;;;;2.10;1.80;;;8.20;99.90;;;;;;5052672;28;20029;-33
2022/02/23 11:27:05;;;;;;;3.13;1.30;;;8.40;99.90;;;;;;5050796;28;20116;-32
2022/02/23 11:30:00;;;;;;;4.30;1.38;;;8.50;99.90;;;;;;5053512;28;20148;-32
2022/02/23 11:32:38;;;;;;;2.10;1.20;;;8.60;99.90;;;;;;5046497;28;20035;-32
2022/02/23 11:35:04;;;;;;;5.28;1.48;;;8.90;99.90;;;;;;5048392;28;20127;-32
2022/02/23 11:37:33;;;;;;;2.15;1.55;;;8.90;99.90;;;;;;5050022;28;20515;-32
2022/02/23 11:40:00;;;;;;;5.65;1.50;;;8.80;99.90;;;;;;5046709;28;20094;-32
2022/02/23 11:42:26;;;;;;;3.13;1.30;;;8.80;99.90;;;;;;5049468;28;20029;-32
2022/02/23 11:45:13;;;;;;;4.35;1.40;;;8.80;99.90;;;;;;5042810;28;20032;-32
2022/02/23 11:47:46;;;;;;;5.47;1.60;;;8.90;99.90;;;;;;5045200;28;20057;-32
2022/02/23 11:50:20;;;;;;;3.80;1.40;;;8.90;99.90;;;;;;5048537;28;20052;-33
2022/02/23 11:53:11;;;;;;;2.08;1.42;;;9.00;99.90;;;;;;5048117;28;20179;-33
2022/02/23 11:56:11;;;;;;;4.35;1.58;;;8.90;99.90;;;;;;5047047;28;20962;-33
2022/02/23 12:02:01;;;;;;;2.97;1.60;;;9.00;99.90;;;;;;5049036;28;20056;-32
2022/02/23 12:04:49;;;;;;;2.42;1.90;;;9.30;99.90;;;;;;5049174;28;20025;-32
2022/02/23 12:07:15;;;;;;;;;;;9.30;99.90;;;;;;5043538;28;20090;-32
2022/02/23 12:09:52;;;;;;;3.85;1.40;;;9.40;99.90;;;;;;5049126;28;19917;-34
2022/02/23 12:12:53;;;;;;;3.10;1.98;;;9.20;99.90;;;;;;5049933;28;20056;-32
2022/02/23 12:15:40;;;;;;;7.35;1.73;;;9.20;99.90;;;;;;5046339;28;20055;-33
2022/02/23 12:18:16;;;;;;;3.00;1.10;;;9.30;99.90;;;;;;5043836;28;20036;-32
2022/02/23 12:20:46;;;;;;;4.75;1.60;;;9.30;98.10;;;;;;5046441;28;20064;-33
2022/02/23 12:23:17;;;;;;;2.50;1.10;;;9.30;99.60;;;;;;5046219;28;20028;-33
2022/02/23 12:25:59;;;;;;;2.83;1.70;;;9.40;99.90;;;;;;5047210;28;20470;-33
2022/02/23 12:28:27;;;;;;;1.42;1.02;;;9.40;99.30;;;;;;5046562;28;20487;-33
2022/02/23 12:31:07;;;;;;;10.47;8.43;;;9.50;99.90;;;;;;5044492;28;20098;-32
2022/02/23 12:33:35;;;;;;;4.68;1.13;;;9.30;99.90;;;;;;5050416;28;20070;-33
2022/02/23 12:36:03;;;;;;;5.38;1.50;;;9.40;99.90;;;;;;5048644;28;20036;-33
2022/02/23 12:38:32;;;;;;;4.70;1.63;;;9.60;99.80;;;;;;5045687;28;20035;-33
2022/02/23 12:40:59;;;;;;;3.33;1.13;;;9.60;98.10;;;;;;5052348;28;20025;-32
2022/02/23 12:43:26;;;;;;;1.60;1.30;;;9.50;98.60;;;;;;5048655;28;20021;-33
2022/02/23 12:45:54;;;;;;;2.78;1.52;;;9.60;97.40;;;;;;5048013;28;20048;-33
2022/02/23 12:48:33;;;;;;;6.50;1.48;;;9.50;98.70;;;;;;5045371;28;20031;-32
2022/02/23 12:51:01;;;;;;;;;;;9.50;99.30;;;;;;5046244;28;20032;-32
2022/02/23 12:53:30;;;;;;;2.90;1.25;;;9.60;98.20;;;;;;5045605;28;19912;-34
2022/02/23 12:55:56;;;;;;;3.78;1.45;;;9.60;96.90;;;;;;5045312;28;20033;-32
2022/02/23 12:58:35;;;;;;;3.20;1.40;;;9.60;97.90;;;;;;5048666;28;20028;-32
2022/02/23 13:01:02;;;;;;;1.17;0.77;;;9.60;97.80;;;;;;5043563;28;20064;-32
2022/02/23 13:03:28;;;;;;;3.67;1.23;;;9.70;95.50;;;;;;5043932;28;20112;-33
2022/02/23 13:05:57;;;;;;;3.47;1.17;;;9.60;96.70;;;;;;5051116;28;20510;-32
2022/02/23 13:08:23;;;;;;;2.83;1.15;;;9.60;98.50;;;;;;5048513;28;20389;-32
2022/02/23 13:10:57;;;;;;;5.22;1.70;;;9.50;95.80;;;;;;5048587;28;20107;-33